createdAt,value
2022-09-21T00:00:37.077Z,4.18
2022-09-21T00:03:41.426Z,3.88
2022-09-21T00:06:43.499Z,4.40
2022-09-21T00:09:45.608Z,5.57
2022-09-21T00:12:48.767Z,4.40
2022-09-21T00:15:50.770Z,5.55
2022-09-21T00:18:53.248Z,4.30
2022-09-21T00:21:56.248Z,4.82
2022-09-21T00:24:58.281Z,4.20
2022-09-21T00:28:00.718Z,4.05
2022-09-21T00:31:07.753Z,4.35
2022-09-21T00:34:09.750Z,5.00
2022-09-21T00:37:11.931Z,3.72
2022-09-21T00:40:14.010Z,5.15
2022-09-21T00:43:17.466Z,4.00
2022-09-21T00:46:30.462Z,3.80
2022-09-21T00:49:34.878Z,4.57
2022-09-21T00:52:41.386Z,4.85
2022-09-21T00:55:55.296Z,5.28
2022-09-21T00:58:57.973Z,8.77
2022-09-21T01:02:00.663Z,10.95
2022-09-21T01:05:06.511Z,6.68
2022-09-21T01:08:12.552Z,5.93
2022-09-21T01:11:20.510Z,7.55
2022-09-21T01:14:54.649Z,6.57
2022-09-21T01:18:18.687Z,5.93
2022-09-21T01:21:34.896Z,6.85
2022-09-21T01:24:50.611Z,6.53
2022-09-21T01:28:03.651Z,6.00
2022-09-21T01:31:11.621Z,6.82
2022-09-21T01:34:54.657Z,6.80
2022-09-21T01:38:13.859Z,6.07
2022-09-21T01:41:23.056Z,7.90
2022-09-21T01:44:29.220Z,9.07
2022-09-21T01:47:31.876Z,8.55
2022-09-21T01:50:41.568Z,8.32
2022-09-21T01:53:52.408Z,9.10
2022-09-21T01:57:32.908Z,10.25
2022-09-21T02:00:35.751Z,10.52
2022-09-21T02:03:40.579Z,11.20
2022-09-21T02:06:46.044Z,9.23
2022-09-21T02:09:48.672Z,9.13
2022-09-21T02:12:56.954Z,10.57
2022-09-21T02:16:03.929Z,8.30
2022-09-21T02:19:58.982Z,9.00
2022-09-21T02:23:07.989Z,9.50
2022-09-21T02:26:19.911Z,8.50
2022-09-21T02:29:27.683Z,9.15
2022-09-21T02:32:47.026Z,11.50
2022-09-21T02:36:01.429Z,9.60
2022-09-21T02:39:11.282Z,10.15
2022-09-21T02:42:23.532Z,10.35
2022-09-21T02:45:33.299Z,13.70
2022-09-21T02:48:45.083Z,12.25
2022-09-21T02:51:53.880Z,10.60
2022-09-21T02:55:01.628Z,10.85
2022-09-21T02:58:07.019Z,12.40
2022-09-21T03:01:12.189Z,15.07
2022-09-21T03:04:14.269Z,16.67
2022-09-21T03:07:17.444Z,15.18
2022-09-21T03:10:19.518Z,16.47
2022-09-21T03:13:26.043Z,14.75
2022-09-21T03:16:28.651Z,13.43
2022-09-21T03:19:30.650Z,14.13
2022-09-21T03:22:32.686Z,12.52
2022-09-21T03:25:34.690Z,11.23
2022-09-21T03:28:36.743Z,10.75
2022-09-21T03:31:38.736Z,10.00
2022-09-21T03:34:41.918Z,11.30
2022-09-21T03:37:44.338Z,10.60
2022-09-21T03:40:47.281Z,10.95
2022-09-21T03:43:49.426Z,9.27
2022-09-21T03:46:51.726Z,9.98
2022-09-21T03:49:54.333Z,10.30
2022-09-21T03:52:57.394Z,9.77
2022-09-21T03:55:59.413Z,8.43
2022-09-21T03:59:01.658Z,11.32
2022-09-21T04:02:03.914Z,8.93
2022-09-21T04:05:07.228Z,10.88
2022-09-21T04:08:10.223Z,12.35
2022-09-21T04:11:16.627Z,12.07
2022-09-21T04:14:18.737Z,13.15
2022-09-21T04:17:21.087Z,11.38
2022-09-21T04:20:23.773Z,12.05
2022-09-21T04:23:26.832Z,14.32
2022-09-21T04:26:31.555Z,11.45
2022-09-21T04:29:33.646Z,10.32
2022-09-21T04:32:35.626Z,11.63
2022-09-21T04:35:37.814Z,12.68
2022-09-21T04:38:42.770Z,11.77
2022-09-21T04:41:45.588Z,13.55
2022-09-21T04:44:47.554Z,12.60
2022-09-21T04:47:50.009Z,13.07
2022-09-21T04:50:52.057Z,13.60
2022-09-21T04:53:54.209Z,12.63
2022-09-21T04:56:56.515Z,12.82
2022-09-21T04:59:58.824Z,12.93
2022-09-21T05:03:00.861Z,13.55
2022-09-21T05:06:03.261Z,12.32
2022-09-21T05:09:23.909Z,15.15
2022-09-21T05:12:25.969Z,13.50
2022-09-21T05:15:28.177Z,12.75
2022-09-21T05:18:30.281Z,13.82
2022-09-21T05:21:32.386Z,14.25
2022-09-21T05:24:34.579Z,14.27
2022-09-21T05:27:37.239Z,15.02
2022-09-21T05:30:47.815Z,12.52
2022-09-21T05:34:07.637Z,9.95
2022-09-21T05:37:31.260Z,9.82
2022-09-21T05:40:33.958Z,7.97
2022-09-21T05:43:36.310Z,6.60
2022-09-21T05:46:41.693Z,8.13
2022-09-21T05:50:20.356Z,8.50
2022-09-21T05:53:34.985Z,7.15
2022-09-21T05:56:51.871Z,7.05
2022-09-21T06:00:19.109Z,8.63
2022-09-21T06:03:29.804Z,5.20
2022-09-21T06:06:31.828Z,5.68
2022-09-21T06:09:33.845Z,6.35
2022-09-21T06:12:36.121Z,7.18
2022-09-21T06:15:38.641Z,6.05
2022-09-21T06:18:42.597Z,6.32
2022-09-21T06:21:45.045Z,7.70
2022-09-21T06:24:47.427Z,6.47
2022-09-21T06:27:49.466Z,5.25
2022-09-21T06:30:53.313Z,4.15
2022-09-21T06:33:55.623Z,4.70
2022-09-21T06:36:58.172Z,5.45
2022-09-21T06:40:00.307Z,5.35
2022-09-21T06:43:03.867Z,4.05
2022-09-21T06:46:06.085Z,4.05
2022-09-21T06:49:08.317Z,4.65
2022-09-21T06:52:10.438Z,3.97
2022-09-21T06:55:12.789Z,5.40
2022-09-21T06:58:14.880Z,3.92
2022-09-21T07:01:17.481Z,5.78
2022-09-21T07:04:25.003Z,4.47
2022-09-21T07:07:30.483Z,3.55
2022-09-21T07:10:32.692Z,4.32
2022-09-21T07:13:35.723Z,4.90
2022-09-21T07:16:37.856Z,4.40
2022-09-21T07:19:40.002Z,4.53
2022-09-21T07:22:42.999Z,5.65
2022-09-21T07:25:47.007Z,5.10
2022-09-21T07:28:49.358Z,6.20
2022-09-21T07:31:51.485Z,5.90
2022-09-21T07:34:56.610Z,4.53
2022-09-21T07:37:59.456Z,5.40
2022-09-21T07:41:03.298Z,4.30
2022-09-21T07:44:05.680Z,4.10
2022-09-21T07:47:08.457Z,4.95
2022-09-21T07:50:10.627Z,3.67
2022-09-21T07:53:13.866Z,4.45
2022-09-21T07:56:17.595Z,4.90
2022-09-21T07:59:20.554Z,3.70
2022-09-21T08:02:22.683Z,4.15
2022-09-21T08:05:24.845Z,4.28
2022-09-21T08:08:26.882Z,4.80
2022-09-21T08:11:30.412Z,4.35
2022-09-21T08:14:32.765Z,5.18
2022-09-21T08:17:34.802Z,4.63
2022-09-21T08:20:37.258Z,4.35
2022-09-21T08:23:43.201Z,6.15
2022-09-21T08:26:45.367Z,5.35
2022-09-21T08:29:47.420Z,7.63
2022-09-21T08:32:51.939Z,5.83
2022-09-21T08:35:55.724Z,4.53
2022-09-21T08:38:58.003Z,4.32
2022-09-21T08:42:00.141Z,6.10
2022-09-21T08:45:10.167Z,4.90
2022-09-21T08:48:16.503Z,5.82
2022-09-21T08:51:25.273Z,6.72
2022-09-21T08:54:49.594Z,6.88
2022-09-21T08:57:51.621Z,6.10
2022-09-21T09:01:21.794Z,6.53
2022-09-21T09:04:30.884Z,5.82
2022-09-21T09:07:49.165Z,5.45
2022-09-21T09:11:12.593Z,7.13
2022-09-21T09:14:56.870Z,4.38
2022-09-21T09:18:04.138Z,5.57
2022-09-21T09:21:15.656Z,6.20
2022-09-21T09:24:42.679Z,4.60
2022-09-21T09:27:47.060Z,4.43
2022-09-21T09:30:57.572Z,7.70
2022-09-21T09:34:21.148Z,3.85
2022-09-21T09:37:32.709Z,5.05
2022-09-21T09:40:55.278Z,4.40
2022-09-21T09:44:00.143Z,4.35
2022-09-21T09:47:26.273Z,4.13
2022-09-21T09:50:32.252Z,3.35
2022-09-21T09:53:36.212Z,3.28
2022-09-21T09:56:38.336Z,2.75
2022-09-21T09:59:51.773Z,3.67
2022-09-21T10:02:58.794Z,3.00
2022-09-21T10:06:00.894Z,3.03
2022-09-21T10:09:20.342Z,2.63
2022-09-21T10:12:27.641Z,2.85
2022-09-21T10:15:30.127Z,2.75
2022-09-21T10:18:38.124Z,1.95
2022-09-21T10:21:46.615Z,2.33
2022-09-21T10:24:53.211Z,1.75
2022-09-21T10:27:56.556Z,2.42
2022-09-21T10:31:11.319Z,2.78
2022-09-21T10:34:14.652Z,2.42
2022-09-21T10:37:33.992Z,1.58
2022-09-21T10:40:40.451Z,2.75
2022-09-21T10:43:44.757Z,2.60
2022-09-21T10:46:48.913Z,2.67
2022-09-21T10:49:55.166Z,2.53
2022-09-21T10:53:25.091Z,1.98
2022-09-21T10:56:27.346Z,3.05
2022-09-21T10:59:32.359Z,1.67
2022-09-21T11:02:38.656Z,1.73
2022-09-21T11:05:43.760Z,1.67
2022-09-21T11:08:49.226Z,2.55
2022-09-21T11:12:17.186Z,2.25
2022-09-21T11:15:42.468Z,3.85
2022-09-21T11:18:55.826Z,3.83
2022-09-21T11:22:15.199Z,2.22
2022-09-21T11:25:28.841Z,3.70
2022-09-21T11:29:14.199Z,3.05
2022-09-21T11:32:37.976Z,2.95
2022-09-21T11:35:41.411Z,3.38
2022-09-21T11:38:59.119Z,2.80
2022-09-21T11:43:09.259Z,2.38
2022-09-21T11:46:32.140Z,2.42
2022-09-21T11:50:29.759Z,4.10
2022-09-21T11:53:44.645Z,2.80
2022-09-21T11:56:52.690Z,2.45
2022-09-21T12:00:04.286Z,2.67
2022-09-21T12:03:36.924Z,2.17
2022-09-21T12:06:48.248Z,2.92
2022-09-21T12:10:10.947Z,2.03
2022-09-21T12:13:15.949Z,2.28
2022-09-21T12:16:33.845Z,2.63
2022-09-21T12:20:02.450Z,2.72
2022-09-21T12:23:11.114Z,2.15
2022-09-21T12:26:20.778Z,2.90
2022-09-21T12:29:47.742Z,1.65
2022-09-21T12:32:56.769Z,2.08
2022-09-21T12:36:28.279Z,1.83
2022-09-21T12:39:37.504Z,1.73
2022-09-21T12:42:51.012Z,2.38
2022-09-21T12:45:58.508Z,2.75
2022-09-21T12:49:08.867Z,2.33
2022-09-21T12:52:18.470Z,3.78
2022-09-21T12:55:20.487Z,2.72
2022-09-21T12:58:30.434Z,3.00
2022-09-21T13:02:01.512Z,3.25
2022-09-21T13:05:28.054Z,3.85
2022-09-21T13:08:37.757Z,3.42
2022-09-21T13:11:56.623Z,3.42
2022-09-21T13:15:13.980Z,2.25
2022-09-21T13:18:36.493Z,2.72
2022-09-21T13:21:38.963Z,2.70
2022-09-21T13:24:43.515Z,2.88
2022-09-21T13:28:12.085Z,1.92
2022-09-21T13:31:39.855Z,3.17
2022-09-21T13:34:49.283Z,2.85
2022-09-21T13:38:31.076Z,2.17
2022-09-21T13:41:52.218Z,2.47
2022-09-21T13:44:59.054Z,2.33
2022-09-21T13:48:19.033Z,2.20
2022-09-21T13:51:21.042Z,2.00
2022-09-21T13:54:26.526Z,1.58
2022-09-21T13:57:48.906Z,2.20
2022-09-21T14:01:02.562Z,1.63
2022-09-21T14:04:23.007Z,1.35
2022-09-21T14:07:31.005Z,1.45
2022-09-21T14:10:37.409Z,1.42
2022-09-21T14:13:44.617Z,1.70
2022-09-21T14:16:52.139Z,2.10
2022-09-21T14:19:54.556Z,1.10
2022-09-21T14:23:16.474Z,1.08
2022-09-21T14:26:33.897Z,2.10
2022-09-21T14:29:44.681Z,1.50
2022-09-21T14:33:00.371Z,1.17
2022-09-21T14:36:08.880Z,1.10
2022-09-21T14:39:25.057Z,1.63
2022-09-21T14:42:29.207Z,1.85
2022-09-21T14:46:05.902Z,2.30
2022-09-21T14:49:15.405Z,3.05
2022-09-21T14:52:45.531Z,3.15
2022-09-21T14:55:47.602Z,3.13
2022-09-21T14:59:27.908Z,2.35
2022-09-21T15:02:34.668Z,2.60
2022-09-21T15:05:40.548Z,2.50
2022-09-21T15:09:36.246Z,2.47
2022-09-21T15:12:44.324Z,2.70
2022-09-21T15:16:18.044Z,2.33
2022-09-21T15:19:28.324Z,3.45
2022-09-21T15:22:32.042Z,2.28
2022-09-21T15:25:34.448Z,2.60
2022-09-21T15:29:08.308Z,1.88
2022-09-21T15:32:19.221Z,2.30
2022-09-21T15:35:29.553Z,2.15
2022-09-21T15:38:34.529Z,2.00
2022-09-21T15:41:43.021Z,3.40
2022-09-21T15:44:50.890Z,4.15
2022-09-21T15:47:53.157Z,3.08
2022-09-21T15:51:17.064Z,3.10
2022-09-21T15:55:11.852Z,3.35
2022-09-21T15:58:29.526Z,3.22
2022-09-21T16:01:31.702Z,2.63
2022-09-21T16:04:34.004Z,3.03
2022-09-21T16:07:38.467Z,2.45
2022-09-21T16:10:41.327Z,2.63
2022-09-21T16:14:04.550Z,3.15
2022-09-21T16:17:22.435Z,3.77
2022-09-21T16:20:42.369Z,2.38
2022-09-21T16:23:44.500Z,2.95
2022-09-21T16:26:58.639Z,3.00
2022-09-21T16:30:01.329Z,4.15
2022-09-21T16:33:23.271Z,2.97
2022-09-21T16:36:34.033Z,2.63
2022-09-21T16:39:36.130Z,2.88
2022-09-21T16:42:38.549Z,3.65
2022-09-21T16:45:40.994Z,4.10
2022-09-21T16:48:44.454Z,4.00
2022-09-21T16:51:48.646Z,3.17
2022-09-21T16:54:51.097Z,3.33
2022-09-21T16:57:53.258Z,3.55
2022-09-21T17:00:56.341Z,2.53
2022-09-21T17:03:58.490Z,3.00
2022-09-21T17:07:01.345Z,4.55
2022-09-21T17:10:13.202Z,3.40
2022-09-21T17:13:19.338Z,3.58
2022-09-21T17:19:28.463Z,3.35
2022-09-21T17:22:30.625Z,3.10
2022-09-21T17:25:34.856Z,3.05
2022-09-21T17:28:37.180Z,3.42
2022-09-21T17:31:39.403Z,3.30
2022-09-21T17:34:42.358Z,4.00
2022-09-21T17:37:45.747Z,4.50
2022-09-21T17:40:48.099Z,3.38
2022-09-21T17:44:14.215Z,4.13
2022-09-21T17:47:22.192Z,4.40
2022-09-21T17:50:27.098Z,5.10
2022-09-21T17:53:37.197Z,3.80
2022-09-21T17:56:44.509Z,4.32
2022-09-21T17:59:54.577Z,4.53
2022-09-21T18:02:56.938Z,4.07
2022-09-21T18:06:02.183Z,3.30
2022-09-21T18:09:05.088Z,4.05
2022-09-21T18:12:07.130Z,4.40
2022-09-21T18:15:28.698Z,4.28
2022-09-21T18:18:58.736Z,4.63
2022-09-21T18:22:13.921Z,3.92
2022-09-21T18:25:33.699Z,4.25
2022-09-21T18:28:40.797Z,3.55
2022-09-21T18:32:17.181Z,5.25
2022-09-21T18:35:28.325Z,5.03
2022-09-21T18:38:59.654Z,4.30
2022-09-21T18:42:26.268Z,3.65
2022-09-21T18:45:58.014Z,3.92
2022-09-21T18:49:20.210Z,4.60
2022-09-21T18:52:36.232Z,4.70
2022-09-21T18:55:38.559Z,4.85
2022-09-21T18:58:42.962Z,4.57
2022-09-21T19:01:47.085Z,4.30
2022-09-21T19:04:49.844Z,7.57
2022-09-21T19:08:01.660Z,5.53
2022-09-21T19:11:08.360Z,5.38
2022-09-21T19:14:32.256Z,4.65
2022-09-21T19:18:11.325Z,5.03
2022-09-21T19:21:23.119Z,3.67
2022-09-21T19:24:35.709Z,4.75
2022-09-21T19:27:39.512Z,3.65
2022-09-21T19:30:42.682Z,4.53
2022-09-21T19:33:50.321Z,3.85
2022-09-21T19:36:53.872Z,4.82
2022-09-21T19:39:56.052Z,5.20
2022-09-21T19:43:33.339Z,4.50
2022-09-21T19:46:49.850Z,5.10
2022-09-21T19:49:58.032Z,4.07
2022-09-21T19:53:28.732Z,4.60
2022-09-21T19:56:54.733Z,4.55
2022-09-21T19:59:58.136Z,5.07
2022-09-21T20:03:13.935Z,3.80
2022-09-21T20:06:27.101Z,5.20
2022-09-21T20:09:37.495Z,5.50
2022-09-21T20:13:09.016Z,4.38
2022-09-21T20:16:33.217Z,4.75
2022-09-21T20:19:44.586Z,4.63
2022-09-21T20:22:46.807Z,8.00
2022-09-21T20:26:05.358Z,5.70
2022-09-21T20:29:08.745Z,4.72
2022-09-21T20:32:10.781Z,4.47
2022-09-21T20:35:18.455Z,5.28
2022-09-21T20:38:20.471Z,4.57
2022-09-21T20:41:24.570Z,4.00
2022-09-21T20:44:29.530Z,4.78
2022-09-21T20:47:31.811Z,5.22
2022-09-21T20:50:33.828Z,5.95
2022-09-21T20:53:36.031Z,4.88
2022-09-21T20:56:38.304Z,4.90
2022-09-21T20:59:40.718Z,4.95
2022-09-21T21:02:43.454Z,4.55
2022-09-21T21:05:46.168Z,5.47
2022-09-21T21:08:48.248Z,6.47
2022-09-21T21:11:51.902Z,5.45
2022-09-21T21:14:53.937Z,5.00
2022-09-21T21:17:56.706Z,5.35
2022-09-21T21:21:03.251Z,5.28
2022-09-21T21:24:24.436Z,5.78
2022-09-21T21:27:28.110Z,4.82
2022-09-21T21:30:31.241Z,4.75
2022-09-21T21:33:33.298Z,4.07
2022-09-21T21:36:35.325Z,5.00
2022-09-21T21:39:37.571Z,4.30
2022-09-21T21:42:39.713Z,5.68
2022-09-21T21:45:42.735Z,4.95
2022-09-21T21:48:45.831Z,4.73
2022-09-21T21:51:49.416Z,4.90
2022-09-21T21:54:51.469Z,3.33
2022-09-21T21:57:53.572Z,4.72
2022-09-21T22:00:55.733Z,4.70
2022-09-21T22:04:00.008Z,4.93
2022-09-21T22:07:02.293Z,4.70
2022-09-21T22:10:04.594Z,6.45
2022-09-21T22:13:07.192Z,6.10
2022-09-21T22:16:12.276Z,4.68
2022-09-21T22:19:14.704Z,4.95
2022-09-21T22:22:16.805Z,6.10
2022-09-21T22:25:18.862Z,5.07
2022-09-21T22:28:20.931Z,3.90
2022-09-21T22:31:29.117Z,4.13
2022-09-21T22:34:31.278Z,4.57
2022-09-21T22:37:33.540Z,4.65
2022-09-21T22:40:35.650Z,3.95
2022-09-21T22:43:38.087Z,4.40
2022-09-21T22:46:40.829Z,3.70
2022-09-21T22:49:42.909Z,3.60
2022-09-21T22:52:45.288Z,4.40
2022-09-21T22:55:48.042Z,4.05
2022-09-21T22:58:53.395Z,4.05
2022-09-21T23:01:56.770Z,3.65
2022-09-21T23:04:58.817Z,4.10
2022-09-21T23:08:00.990Z,3.92
2022-09-21T23:11:31.009Z,4.43
2022-09-21T23:14:33.051Z,4.75
2022-09-21T23:17:35.775Z,5.57
2022-09-21T23:20:37.909Z,3.58
2022-09-21T23:23:40.836Z,4.30
2022-09-21T23:26:43.113Z,5.00
2022-09-21T23:29:45.449Z,4.55
2022-09-21T23:32:47.563Z,4.95
2022-09-21T23:35:52.710Z,3.45
2022-09-21T23:38:55.438Z,4.13
2022-09-21T23:41:57.461Z,3.90
2022-09-21T23:44:59.468Z,4.93
2022-09-21T23:48:01.743Z,3.83
2022-09-21T23:51:04.276Z,4.03
2022-09-21T23:54:07.012Z,4.22
2022-09-21T23:57:09.230Z,4.18
